Weather at Centre Hospitalier Heliport

Public forecast

Using degrees Celsius for public forecast. Weather courtesy of forecast.io.

Closest aviation weather report (METAR) to Centre Hospitalier Heliport

Closest report is Angoul√™me-Brie-Champniers Airport, 7.2 nm (13.3 km) NE. Retrieved 2021/08/04 06:30 UTC (14 minutes ago):

LFBU 040630Z AUTO 16007KT 120V180 9999 OVC004 16/16 Q1012 TEMPO 3000 RA BKN004 SCT015TCU

Closest aviation forecast (TAF) to Centre Hospitalier Heliport

Closest forecast is Angoul√™me-Brie-Champniers Airport, 7.2 nm (13.3 km) NE. Retrieved 2021/08/04 06:00 UTC (44 minutes ago):

TAF LFBU 040500Z 0406/0506 16005KT 9999 BKN013 TEMPO 0406/0409 3000 RA BKN004 SCT015TCU BECMG 0409/0411 23010KT BKN020 PROB40 TEMPO 0409/0418 4000 -SHRA BKN010 SCT020TCU TEMPO 0421/0506 BKN008 PROB40 TEMPO 0503/0506 4000 BR